createdAt,value
2022-11-27T00:00:55.019Z,5.76
2022-11-27T00:01:55.027Z,5.78
2022-11-27T00:02:55.143Z,5.79
2022-11-27T00:03:55.119Z,5.79
2022-11-27T00:04:54.968Z,5.79
2022-11-27T00:05:54.958Z,5.82
2022-11-27T00:06:55.156Z,5.81
2022-11-27T00:07:54.983Z,5.78
2022-11-27T00:08:54.916Z,5.79
2022-11-27T00:09:54.908Z,5.78
2022-11-27T00:10:54.897Z,5.75
2022-11-27T00:11:55.077Z,5.75
2022-11-27T00:12:54.876Z,5.75
2022-11-27T00:13:54.847Z,5.71
2022-11-27T00:14:55.767Z,5.68
2022-11-27T00:15:54.846Z,5.68
2022-11-27T00:16:55.027Z,5.65
2022-11-27T00:17:54.802Z,5.65
2022-11-27T00:18:54.786Z,5.64
2022-11-27T00:19:54.772Z,5.64
2022-11-27T00:20:54.755Z,5.64
2022-11-27T00:21:54.954Z,5.65
2022-11-27T00:22:54.734Z,5.67
2022-11-27T00:23:54.723Z,5.68
2022-11-27T00:24:54.913Z,5.67
2022-11-27T00:25:54.693Z,5.67
2022-11-27T00:26:54.682Z,5.65
2022-11-27T00:27:54.874Z,5.64
2022-11-27T00:28:54.654Z,5.63
2022-11-27T00:29:54.641Z,5.63
2022-11-27T00:30:54.683Z,5.61
2022-11-27T00:31:54.621Z,5.60
2022-11-27T00:32:54.809Z,5.60
2022-11-27T00:33:54.590Z,5.58
2022-11-27T00:34:54.591Z,5.57
2022-11-27T00:35:54.570Z,5.57
2022-11-27T00:36:54.753Z,5.56
2022-11-27T00:37:54.550Z,5.56
2022-11-27T00:38:54.529Z,5.56
2022-11-27T00:39:54.509Z,5.53
2022-11-27T00:40:54.509Z,5.54
2022-11-27T00:41:54.691Z,5.54
2022-11-27T00:42:54.480Z,5.56
2022-11-27T00:43:54.469Z,5.56
2022-11-27T00:44:54.659Z,5.57
2022-11-27T00:45:54.471Z,5.57
2022-11-27T00:46:54.487Z,5.57
2022-11-27T00:47:54.408Z,5.54
2022-11-27T00:48:54.400Z,5.54
2022-11-27T00:49:54.597Z,5.53
2022-11-27T00:50:54.377Z,5.53
2022-11-27T00:51:54.537Z,5.51
2022-11-27T00:52:54.361Z,5.49
2022-11-27T00:53:54.329Z,5.49
2022-11-27T00:54:54.338Z,5.49
2022-11-27T00:55:54.307Z,5.48
2022-11-27T00:56:54.305Z,5.48
2022-11-27T00:57:54.294Z,5.49
2022-11-27T00:58:54.288Z,5.53
2022-11-27T00:59:54.437Z,5.49
2022-11-27T01:00:54.460Z,5.49
2022-11-27T01:01:54.290Z,5.48
2022-11-27T01:02:54.275Z,5.48
2022-11-27T01:03:54.205Z,5.45
2022-11-27T01:04:54.192Z,5.43
2022-11-27T01:05:54.406Z,5.43
2022-11-27T01:06:54.163Z,5.42
2022-11-27T01:07:54.212Z,5.40
2022-11-27T01:08:54.141Z,5.42
2022-11-27T01:09:54.334Z,5.42
2022-11-27T01:10:55.115Z,5.40
2022-11-27T01:11:54.103Z,5.42
2022-11-27T01:12:54.095Z,5.39
2022-11-27T01:13:54.283Z,5.38
2022-11-27T01:14:54.062Z,5.36
2022-11-27T01:15:54.326Z,5.36
2022-11-27T01:16:54.051Z,5.33
2022-11-27T01:17:54.032Z,5.33
2022-11-27T01:18:54.035Z,5.31
2022-11-27T01:19:54.201Z,5.30
2022-11-27T01:20:54.196Z,5.30
2022-11-27T01:21:53.982Z,5.28
2022-11-27T01:22:53.971Z,5.28
2022-11-27T01:23:53.943Z,5.25
2022-11-27T01:24:53.939Z,5.28
2022-11-27T01:25:54.131Z,5.30
2022-11-27T01:26:54.122Z,5.28
2022-11-27T01:27:53.889Z,5.30
2022-11-27T01:28:53.906Z,5.28
2022-11-27T01:29:53.872Z,5.28
2022-11-27T01:30:53.891Z,5.25
2022-11-27T01:31:54.070Z,5.25
2022-11-27T01:32:53.830Z,5.25
2022-11-27T01:33:53.808Z,5.24
2022-11-27T01:34:54.544Z,5.24
2022-11-27T01:35:53.797Z,5.24
2022-11-27T01:36:53.977Z,5.24
2022-11-27T01:37:53.759Z,5.22
2022-11-27T01:38:53.755Z,5.24
2022-11-27T01:39:53.747Z,5.25
2022-11-27T01:40:53.727Z,5.27
2022-11-27T01:41:53.917Z,5.25
2022-11-27T01:42:53.928Z,5.25
2022-11-27T01:43:53.685Z,5.24
2022-11-27T01:44:53.676Z,5.24
2022-11-27T01:45:53.662Z,5.21
2022-11-27T01:46:53.911Z,5.22
2022-11-27T01:47:53.643Z,5.21
2022-11-27T01:48:53.625Z,5.24
2022-11-27T01:49:53.615Z,5.24
2022-11-27T01:50:53.602Z,5.24
2022-11-27T01:51:53.603Z,5.24
2022-11-27T01:52:53.808Z,5.22
2022-11-27T01:53:53.554Z,5.24
2022-11-27T01:54:53.550Z,5.22
2022-11-27T01:55:53.539Z,5.22
2022-11-27T01:56:53.515Z,5.25
2022-11-27T01:57:53.722Z,5.27
2022-11-27T01:58:53.543Z,5.27
2022-11-27T01:59:53.501Z,5.25
2022-11-27T02:00:53.471Z,5.25
2022-11-27T02:01:53.576Z,5.25
2022-11-27T02:02:53.754Z,5.25
2022-11-27T02:03:53.424Z,5.25
2022-11-27T02:04:53.421Z,5.24
2022-11-27T02:05:53.408Z,5.24
2022-11-27T02:06:53.394Z,5.24
2022-11-27T02:07:53.516Z,5.22
2022-11-27T02:08:53.370Z,5.21
2022-11-27T02:09:53.360Z,5.21
2022-11-27T02:10:53.340Z,5.21
2022-11-27T02:11:53.320Z,5.22
2022-11-27T02:12:53.561Z,5.22
2022-11-27T02:13:53.310Z,5.22
2022-11-27T02:14:53.288Z,5.21
2022-11-27T02:15:53.327Z,5.21
2022-11-27T02:16:53.271Z,5.20
2022-11-27T02:17:53.247Z,5.18
2022-11-27T02:18:53.429Z,5.17
2022-11-27T02:19:53.416Z,5.15
2022-11-27T02:20:53.217Z,5.15
2022-11-27T02:21:53.228Z,5.13
2022-11-27T02:22:53.190Z,5.12
2022-11-27T02:23:53.168Z,5.10
2022-11-27T02:24:53.359Z,5.10
2022-11-27T02:25:53.145Z,5.09
2022-11-27T02:26:53.135Z,5.09
2022-11-27T02:27:53.121Z,5.10
2022-11-27T02:28:53.133Z,5.09
2022-11-27T02:29:53.315Z,5.07
2022-11-27T02:30:53.130Z,5.07
2022-11-27T02:31:53.071Z,5.07
2022-11-27T02:32:53.064Z,5.09
2022-11-27T02:33:53.036Z,5.09
2022-11-27T02:34:53.270Z,5.07
2022-11-27T02:35:53.014Z,5.06
2022-11-27T02:36:53.005Z,5.06
2022-11-27T02:37:53.017Z,5.06
2022-11-27T02:38:52.974Z,5.04
2022-11-27T02:39:52.974Z,5.04
2022-11-27T02:40:52.965Z,5.04
2022-11-27T02:41:52.943Z,5.06
2022-11-27T02:42:53.062Z,5.06
2022-11-27T02:43:53.115Z,5.06
2022-11-27T02:44:52.907Z,5.06
2022-11-27T02:45:52.884Z,5.07
2022-11-27T02:46:52.950Z,5.04
2022-11-27T02:47:52.863Z,5.06
2022-11-27T02:48:53.063Z,5.04
2022-11-27T02:49:52.843Z,5.04
2022-11-27T02:50:53.071Z,5.04
2022-11-27T02:51:52.811Z,5.03
2022-11-27T02:52:52.802Z,5.03
2022-11-27T02:53:52.791Z,5.03
2022-11-27T02:54:52.801Z,5.06
2022-11-27T02:55:52.782Z,5.06
2022-11-27T02:56:52.749Z,5.06
2022-11-27T02:57:52.790Z,5.07
2022-11-27T02:58:52.733Z,5.09
2022-11-27T02:59:52.713Z,5.10
2022-11-27T03:00:52.890Z,5.12
2022-11-27T03:01:52.743Z,5.12
2022-11-27T03:02:52.948Z,5.13
2022-11-27T03:03:52.668Z,5.15
2022-11-27T03:04:52.846Z,5.13
2022-11-27T03:05:52.628Z,5.13
2022-11-27T03:06:52.633Z,5.10
2022-11-27T03:07:52.665Z,5.12
2022-11-27T03:08:52.597Z,5.09
2022-11-27T03:09:52.777Z,5.09
2022-11-27T03:10:52.568Z,5.09
2022-11-27T03:11:52.584Z,5.07
2022-11-27T03:12:52.556Z,5.07
2022-11-27T03:13:52.525Z,5.06
2022-11-27T03:14:52.817Z,5.06
2022-11-27T03:15:52.551Z,5.03
2022-11-27T03:16:52.496Z,5.04
2022-11-27T03:17:52.475Z,5.03
2022-11-27T03:18:52.486Z,5.03
2022-11-27T03:19:52.474Z,5.04
2022-11-27T03:20:52.453Z,5.02
2022-11-27T03:21:52.426Z,5.03
2022-11-27T03:22:52.427Z,5.04
2022-11-27T03:23:52.403Z,5.04
2022-11-27T03:24:52.684Z,5.06
2022-11-27T03:25:52.585Z,5.06
2022-11-27T03:26:52.372Z,5.06
2022-11-27T03:27:52.355Z,5.04
2022-11-27T03:28:52.343Z,5.06
2022-11-27T03:29:52.333Z,5.04
2022-11-27T03:30:52.556Z,5.04
2022-11-27T03:31:52.300Z,5.06
2022-11-27T03:32:52.312Z,5.09
2022-11-27T03:33:52.282Z,5.12
2022-11-27T03:34:52.291Z,5.10
2022-11-27T03:35:52.452Z,5.12
2022-11-27T03:36:52.239Z,5.12
2022-11-27T03:37:52.222Z,5.12
2022-11-27T03:38:52.223Z,5.12
2022-11-27T03:39:52.200Z,5.15
2022-11-27T03:40:52.422Z,5.13
2022-11-27T03:41:52.171Z,5.13
2022-11-27T03:42:52.172Z,5.13
2022-11-27T03:43:52.144Z,5.13
2022-11-27T03:44:52.142Z,5.15
2022-11-27T03:45:52.359Z,5.15
2022-11-27T03:46:52.167Z,5.15
2022-11-27T03:47:52.147Z,5.15
2022-11-27T03:48:52.099Z,5.15
2022-11-27T03:49:52.068Z,5.17
2022-11-27T03:50:52.071Z,5.18
2022-11-27T03:51:52.049Z,5.21
2022-11-27T03:52:52.234Z,5.21
2022-11-27T03:53:52.027Z,5.21
2022-11-27T03:54:52.011Z,5.22
2022-11-27T03:55:51.997Z,5.21
2022-11-27T03:56:52.016Z,5.22
2022-11-27T03:57:51.969Z,5.21
2022-11-27T03:58:51.968Z,5.21
2022-11-27T03:59:52.179Z,5.24
2022-11-27T04:00:51.937Z,5.22
2022-11-27T04:01:51.976Z,5.27
2022-11-27T04:02:51.932Z,5.28
2022-11-27T04:03:52.065Z,5.30
2022-11-27T04:04:52.117Z,5.31
2022-11-27T04:05:52.075Z,5.31
2022-11-27T04:06:51.885Z,5.30
2022-11-27T04:07:51.909Z,5.33
2022-11-27T04:08:51.834Z,5.35
2022-11-27T04:09:51.821Z,5.35
2022-11-27T04:10:52.008Z,5.36
2022-11-27T04:11:52.019Z,5.38
2022-11-27T04:12:51.784Z,5.39
2022-11-27T04:13:51.794Z,5.39
2022-11-27T04:14:51.753Z,5.42
2022-11-27T04:15:52.022Z,5.43
2022-11-27T04:16:51.745Z,5.46
2022-11-27T04:17:51.727Z,5.48
2022-11-27T04:18:51.693Z,5.49
2022-11-27T04:19:51.682Z,5.49
2022-11-27T04:20:51.671Z,5.49
2022-11-27T04:21:51.918Z,5.53
2022-11-27T04:22:51.906Z,5.51
2022-11-27T04:23:51.632Z,5.53
2022-11-27T04:24:51.632Z,5.53
2022-11-27T04:25:51.611Z,5.54
2022-11-27T04:26:51.781Z,5.56
2022-11-27T04:27:51.590Z,5.57
2022-11-27T04:28:51.581Z,5.56
2022-11-27T04:29:51.559Z,5.57
2022-11-27T04:30:51.568Z,5.58
2022-11-27T04:31:51.581Z,5.63
2022-11-27T04:32:51.530Z,5.64
2022-11-27T04:33:51.510Z,5.64
2022-11-27T04:34:51.492Z,5.61
2022-11-27T04:35:51.688Z,5.60
2022-11-27T04:36:51.469Z,5.58
2022-11-27T04:37:51.458Z,5.60
2022-11-27T04:38:51.663Z,5.60
2022-11-27T04:39:51.458Z,5.61
2022-11-27T04:40:51.408Z,5.61
2022-11-27T04:41:51.407Z,5.63
2022-11-27T04:42:51.427Z,5.65
2022-11-27T04:43:51.376Z,5.65
2022-11-27T04:44:51.357Z,5.65
2022-11-27T04:45:51.370Z,5.65
2022-11-27T04:46:51.398Z,5.64
2022-11-27T04:47:51.345Z,5.64
2022-11-27T04:48:51.313Z,5.64
2022-11-27T04:49:51.299Z,5.65
2022-11-27T04:50:51.323Z,5.65
2022-11-27T04:51:51.275Z,5.65
2022-11-27T04:52:51.264Z,5.64
2022-11-27T04:53:51.477Z,5.64
2022-11-27T04:54:55.358Z,5.65
2022-11-27T04:55:52.235Z,5.68
2022-11-27T04:56:51.413Z,5.68
2022-11-27T04:57:51.403Z,5.67
2022-11-27T04:58:51.243Z,5.67
2022-11-27T04:59:51.180Z,5.65
2022-11-27T05:00:51.242Z,5.67
2022-11-27T05:01:51.159Z,5.67
2022-11-27T05:02:51.413Z,5.67
2022-11-27T05:03:51.123Z,5.68
2022-11-27T05:04:51.321Z,5.68
2022-11-27T05:05:51.299Z,5.71
2022-11-27T05:06:51.074Z,5.71
2022-11-27T05:07:51.387Z,5.71
2022-11-27T05:08:51.053Z,5.71
2022-11-27T05:09:51.052Z,5.72
2022-11-27T05:10:51.320Z,5.74
2022-11-27T05:11:51.011Z,5.78
2022-11-27T05:12:51.036Z,5.79
2022-11-27T05:13:51.021Z,5.78
2022-11-27T05:14:50.968Z,5.78
2022-11-27T05:15:51.100Z,5.78
2022-11-27T05:16:50.950Z,5.78
2022-11-27T05:17:50.950Z,5.76
2022-11-27T05:18:50.929Z,5.78
2022-11-27T05:19:50.913Z,5.78
2022-11-27T05:20:51.088Z,5.76
2022-11-27T05:21:50.895Z,5.76
2022-11-27T05:22:50.878Z,5.76
2022-11-27T05:23:51.099Z,5.75
2022-11-27T05:24:50.847Z,5.75
2022-11-27T05:25:51.080Z,5.75
2022-11-27T05:26:50.825Z,5.75
2022-11-27T05:27:50.805Z,5.76
2022-11-27T05:28:50.810Z,5.81
2022-11-27T05:29:50.797Z,5.83
2022-11-27T05:30:50.771Z,5.89
2022-11-27T05:31:50.830Z,5.89
2022-11-27T05:32:50.745Z,5.90
2022-11-27T05:33:50.752Z,5.90
2022-11-27T05:34:50.723Z,5.91
2022-11-27T05:35:50.709Z,5.91
2022-11-27T05:36:50.714Z,5.90
2022-11-27T05:37:50.694Z,5.91
2022-11-27T05:38:50.901Z,5.90
2022-11-27T05:39:50.653Z,5.89
2022-11-27T05:40:50.650Z,5.89
2022-11-27T05:41:50.623Z,5.90
2022-11-27T05:42:50.841Z,5.90
2022-11-27T05:43:50.594Z,5.91
2022-11-27T05:44:55.298Z,5.93
2022-11-27T05:45:51.582Z,5.91
2022-11-27T05:46:50.618Z,5.90
2022-11-27T05:47:50.572Z,5.91
2022-11-27T05:48:50.541Z,5.94
2022-11-27T05:49:50.552Z,5.97
2022-11-27T05:50:50.521Z,5.96
2022-11-27T05:51:51.645Z,5.99
2022-11-27T05:52:50.712Z,5.99
2022-11-27T05:53:50.470Z,5.99
2022-11-27T05:54:50.700Z,6.01
2022-11-27T05:55:50.451Z,6.01
2022-11-27T05:56:50.439Z,6.04
2022-11-27T05:57:50.420Z,6.06
2022-11-27T05:58:50.409Z,6.09
2022-11-27T05:59:50.598Z,6.12
2022-11-27T06:00:50.379Z,6.11
2022-11-27T06:01:50.424Z,6.11
2022-11-27T06:02:50.434Z,6.12
2022-11-27T06:03:50.428Z,6.11
2022-11-27T06:04:50.556Z,6.11
2022-11-27T06:05:50.318Z,6.11
2022-11-27T06:06:50.327Z,6.09
2022-11-27T06:07:50.554Z,6.09
2022-11-27T06:08:50.297Z,6.12
2022-11-27T06:09:50.264Z,6.12
2022-11-27T06:10:50.452Z,6.11
2022-11-27T06:11:50.242Z,6.09
2022-11-27T06:12:50.234Z,6.11
2022-11-27T06:13:50.216Z,6.11
2022-11-27T06:14:50.205Z,6.09
2022-11-27T06:15:50.396Z,6.09
2022-11-27T06:16:50.266Z,6.11
2022-11-27T06:17:50.384Z,6.09
2022-11-27T06:18:50.215Z,6.06
2022-11-27T06:19:50.134Z,6.06
2022-11-27T06:20:53.000Z,6.08
2022-11-27T06:21:50.333Z,6.06
2022-11-27T06:22:50.335Z,6.09
2022-11-27T06:23:50.084Z,6.11
2022-11-27T06:24:50.105Z,6.11
2022-11-27T06:25:50.062Z,6.14
2022-11-27T06:26:50.262Z,6.15
2022-11-27T06:27:50.042Z,6.15
2022-11-27T06:28:50.055Z,6.15
2022-11-27T06:29:50.041Z,6.14
2022-11-27T06:30:50.011Z,6.15
2022-11-27T06:31:50.257Z,6.17
2022-11-27T06:32:49.972Z,6.18
2022-11-27T06:33:49.959Z,6.18
2022-11-27T06:34:49.952Z,6.18
2022-11-27T06:35:49.933Z,6.19
2022-11-27T06:36:49.952Z,6.18
2022-11-27T06:37:49.900Z,6.18
2022-11-27T06:38:49.903Z,6.19
2022-11-27T06:39:50.089Z,6.22
2022-11-27T06:40:50.073Z,6.22
2022-11-27T06:41:49.862Z,6.25
2022-11-27T06:42:49.858Z,6.25
2022-11-27T06:43:49.833Z,6.25
2022-11-27T06:44:49.843Z,6.22
2022-11-27T06:45:49.862Z,6.21
2022-11-27T06:46:49.798Z,6.21
2022-11-27T06:47:49.777Z,6.21
2022-11-27T06:48:49.768Z,6.21
2022-11-27T06:49:49.798Z,6.21
2022-11-27T06:50:49.758Z,6.21
2022-11-27T06:51:49.747Z,6.22
2022-11-27T06:52:49.730Z,6.22
2022-11-27T06:53:49.704Z,6.25
2022-11-27T06:54:49.896Z,6.27
2022-11-27T06:55:49.678Z,6.27
2022-11-27T06:56:49.688Z,6.27
2022-11-27T06:57:49.856Z,6.28
2022-11-27T06:58:49.638Z,6.28
2022-11-27T06:59:49.836Z,6.28
2022-11-27T07:00:49.637Z,6.31
2022-11-27T07:01:49.853Z,6.31
2022-11-27T07:02:49.588Z,6.31
2022-11-27T07:03:49.575Z,6.33
2022-11-27T07:04:49.570Z,6.34
2022-11-27T07:05:49.543Z,6.33
2022-11-27T07:06:49.563Z,6.33
2022-11-27T07:07:49.546Z,6.34
2022-11-27T07:08:49.513Z,6.33
2022-11-27T07:09:49.503Z,6.33
2022-11-27T07:10:49.489Z,6.33
2022-11-27T07:11:49.696Z,6.34
2022-11-27T07:12:49.452Z,6.36
2022-11-27T07:13:49.766Z,6.36
2022-11-27T07:14:49.751Z,6.36
2022-11-27T07:15:49.420Z,6.37
2022-11-27T07:16:49.526Z,6.36
2022-11-27T07:17:49.390Z,6.36
2022-11-27T07:18:49.381Z,6.37
2022-11-27T07:19:49.590Z,6.37
2022-11-27T07:20:53.705Z,6.40
2022-11-27T07:21:50.341Z,6.41
2022-11-27T07:22:49.336Z,6.40
2022-11-27T07:23:49.358Z,6.40
2022-11-27T07:24:49.519Z,6.40
2022-11-27T07:25:49.288Z,6.38
2022-11-27T07:26:49.279Z,6.40
2022-11-27T07:27:49.270Z,6.40
2022-11-27T07:28:49.247Z,6.41
2022-11-27T07:29:49.459Z,6.41
2022-11-27T07:30:49.227Z,6.44
2022-11-27T07:31:49.276Z,6.44
2022-11-27T07:32:49.199Z,6.48
2022-11-27T07:33:49.187Z,6.48
2022-11-27T07:34:49.195Z,6.49
2022-11-27T07:35:49.197Z,6.51
2022-11-27T07:36:49.154Z,6.52
2022-11-27T07:37:49.135Z,6.52
2022-11-27T07:38:49.124Z,6.52
2022-11-27T07:40:02.510Z,6.54
2022-11-27T07:40:50.126Z,6.54
2022-11-27T07:41:49.117Z,6.55
2022-11-27T07:42:49.065Z,6.56
2022-11-27T07:43:49.063Z,6.56
2022-11-27T07:44:49.035Z,6.54
2022-11-27T07:45:49.125Z,6.55
2022-11-27T07:46:49.051Z,6.55
2022-11-27T07:47:49.001Z,6.55
2022-11-27T07:48:48.994Z,6.55
2022-11-27T07:49:48.993Z,6.55
2022-11-27T07:50:48.953Z,6.58
2022-11-27T07:51:49.176Z,6.58
2022-11-27T07:52:48.942Z,6.58
2022-11-27T07:53:48.927Z,6.61
2022-11-27T07:54:48.912Z,6.61
2022-11-27T07:55:48.902Z,6.62
2022-11-27T07:56:49.119Z,6.66
2022-11-27T07:57:48.874Z,6.66
2022-11-27T07:58:48.861Z,6.69
2022-11-27T07:59:48.852Z,6.69
2022-11-27T08:00:48.852Z,6.70
2022-11-27T08:01:48.840Z,6.71
2022-11-27T08:02:49.039Z,6.73
2022-11-27T08:03:49.002Z,6.73
2022-11-27T08:04:48.964Z,6.74
2022-11-27T08:05:48.770Z,6.76
2022-11-27T08:06:48.909Z,6.77
2022-11-27T08:07:48.841Z,6.77
2022-11-27T08:08:48.742Z,6.77
2022-11-27T08:09:48.747Z,6.79
2022-11-27T08:10:48.707Z,6.80
2022-11-27T08:11:48.689Z,6.81
2022-11-27T08:12:48.712Z,6.84
2022-11-27T08:13:48.668Z,6.85
2022-11-27T08:14:48.680Z,6.85
2022-11-27T08:15:48.653Z,6.88
2022-11-27T08:16:48.667Z,6.88
2022-11-27T08:17:48.617Z,6.88
2022-11-27T08:18:48.605Z,6.91
2022-11-27T08:19:48.617Z,6.92
2022-11-27T08:20:48.575Z,6.92
2022-11-27T08:21:48.575Z,6.95
2022-11-27T08:22:48.558Z,6.97
2022-11-27T08:23:48.536Z,6.99
2022-11-27T08:24:48.546Z,7.02
2022-11-27T08:25:48.526Z,7.03
2022-11-27T08:26:48.704Z,7.03
2022-11-27T08:27:48.506Z,7.05
2022-11-27T08:28:48.471Z,7.06
2022-11-27T08:29:48.494Z,7.09
2022-11-27T08:30:48.706Z,7.12
2022-11-27T08:31:48.469Z,7.15
2022-11-27T08:32:48.414Z,7.17
2022-11-27T08:33:48.441Z,7.21
2022-11-27T08:34:48.399Z,7.24
2022-11-27T08:35:48.383Z,7.27
2022-11-27T08:36:48.365Z,7.30
2022-11-27T08:37:48.355Z,7.32
2022-11-27T08:38:48.363Z,7.34
2022-11-27T08:39:48.332Z,7.35
2022-11-27T08:40:48.314Z,7.37
2022-11-27T08:41:48.331Z,7.39
2022-11-27T08:42:48.295Z,7.42
2022-11-27T08:43:48.314Z,7.42
2022-11-27T08:44:48.269Z,7.43
2022-11-27T08:45:48.298Z,7.43
2022-11-27T08:46:48.541Z,7.48
2022-11-27T08:47:48.228Z,7.50
2022-11-27T08:48:48.211Z,7.55
2022-11-27T08:49:48.210Z,7.55
2022-11-27T08:50:48.181Z,7.60
2022-11-27T08:51:48.407Z,7.61
2022-11-27T08:52:48.168Z,7.61
2022-11-27T08:53:48.159Z,7.64
2022-11-27T08:54:50.920Z,7.67
2022-11-27T08:55:49.119Z,7.69
2022-11-27T08:56:48.310Z,7.72
2022-11-27T08:57:48.098Z,7.75
2022-11-27T08:58:48.099Z,7.79
2022-11-27T08:59:48.079Z,7.80
2022-11-27T09:00:48.146Z,7.85
2022-11-27T09:01:48.049Z,7.86
2022-11-27T09:02:48.256Z,7.87
2022-11-27T09:03:48.135Z,7.92
2022-11-27T09:04:48.008Z,7.95
2022-11-27T09:05:47.997Z,7.97
2022-11-27T09:06:47.977Z,7.98
2022-11-27T09:07:48.236Z,8.01
2022-11-27T09:08:47.997Z,8.02
2022-11-27T09:09:47.957Z,8.04
2022-11-27T09:10:47.936Z,8.05
2022-11-27T09:11:47.925Z,8.05
2022-11-27T09:12:47.906Z,8.07
2022-11-27T09:13:47.966Z,8.10
2022-11-27T09:14:47.875Z,8.11
2022-11-27T09:15:47.864Z,8.15
2022-11-27T09:16:48.169Z,8.16
2022-11-27T09:17:47.844Z,8.19
2022-11-27T09:18:47.853Z,8.20
2022-11-27T09:19:47.835Z,8.23
2022-11-27T09:20:47.813Z,8.25
2022-11-27T09:21:47.985Z,8.29
2022-11-27T09:22:47.794Z,8.33
2022-11-27T09:23:47.763Z,8.34
2022-11-27T09:24:47.751Z,8.34
2022-11-27T09:25:47.746Z,8.34
2022-11-27T09:26:47.925Z,8.37
2022-11-27T09:27:47.711Z,8.37
2022-11-27T09:28:47.692Z,8.37
2022-11-27T09:29:47.923Z,8.38
2022-11-27T09:30:47.670Z,8.40
2022-11-27T09:31:47.690Z,8.41
2022-11-27T09:32:47.645Z,8.41
2022-11-27T09:33:47.662Z,8.41
2022-11-27T09:34:47.682Z,8.43
2022-11-27T09:35:47.611Z,8.40
2022-11-27T09:36:47.587Z,8.40
2022-11-27T09:37:47.620Z,8.40
2022-11-27T09:38:47.560Z,8.43
2022-11-27T09:39:47.554Z,8.43
2022-11-27T09:40:47.550Z,8.43
2022-11-27T09:41:47.529Z,8.41
2022-11-27T09:42:47.536Z,8.41
2022-11-27T09:43:47.501Z,8.43
2022-11-27T09:44:47.699Z,8.43
2022-11-27T09:45:47.534Z,8.43
2022-11-27T09:46:47.458Z,8.43
2022-11-27T09:47:47.458Z,8.41
2022-11-27T09:48:47.488Z,8.43
2022-11-27T09:49:47.427Z,8.41
2022-11-27T09:50:47.417Z,8.41
2022-11-27T09:51:47.626Z,8.43
2022-11-27T09:52:47.390Z,8.43
2022-11-27T09:53:47.377Z,8.45
2022-11-27T09:54:52.258Z,8.45
2022-11-27T09:55:48.350Z,8.48
2022-11-27T09:56:47.556Z,8.53
2022-11-27T09:57:47.317Z,8.55
2022-11-27T09:58:47.345Z,8.56
2022-11-27T09:59:47.295Z,8.58
2022-11-27T10:00:47.287Z,8.61
2022-11-27T10:01:50.883Z,8.62
2022-11-27T10:02:47.396Z,8.63
2022-11-27T10:03:47.266Z,8.65
2022-11-27T10:05:06.236Z,8.66
2022-11-27T10:05:48.215Z,8.68
2022-11-27T10:06:47.218Z,8.70
2022-11-27T10:07:47.336Z,8.71
2022-11-27T10:08:47.182Z,8.74
2022-11-27T10:09:47.164Z,8.74
2022-11-27T10:10:47.174Z,8.76
2022-11-27T10:11:47.142Z,8.79
2022-11-27T10:12:47.199Z,8.80
2022-11-27T10:13:47.130Z,8.81
2022-11-27T10:14:47.135Z,8.83
2022-11-27T10:15:47.133Z,8.84
2022-11-27T10:16:47.107Z,8.86
2022-11-27T10:17:47.062Z,8.89
2022-11-27T10:18:47.051Z,8.91
2022-11-27T10:19:47.070Z,8.92
2022-11-27T10:20:47.052Z,8.94
2022-11-27T10:21:47.012Z,8.95
2022-11-27T10:22:46.993Z,8.96
2022-11-27T10:23:46.999Z,8.98
2022-11-27T10:24:47.000Z,8.99
2022-11-27T10:25:46.979Z,8.99
2022-11-27T10:26:46.950Z,9.02
2022-11-27T10:27:46.941Z,9.04
2022-11-27T10:28:47.139Z,9.04
2022-11-27T10:29:47.308Z,9.05
2022-11-27T10:30:46.892Z,9.10
2022-11-27T10:31:47.165Z,9.10
2022-11-27T10:32:55.283Z,9.13
2022-11-27T10:33:47.861Z,9.14
2022-11-27T10:34:46.899Z,9.14
2022-11-27T10:35:46.837Z,9.18
2022-11-27T10:36:46.847Z,9.18
2022-11-27T10:37:46.807Z,9.17
2022-11-27T10:38:46.795Z,9.21
2022-11-27T10:39:47.028Z,9.23
2022-11-27T10:40:46.776Z,9.26
2022-11-27T10:41:50.255Z,9.26
2022-11-27T10:42:46.757Z,9.29
2022-11-27T10:43:46.726Z,9.31
2022-11-27T10:44:46.754Z,9.32
2022-11-27T10:45:46.786Z,9.33
2022-11-27T10:46:46.687Z,9.35
2022-11-27T10:47:46.689Z,9.36
2022-11-27T10:48:46.720Z,9.39
2022-11-27T10:49:46.877Z,9.42
2022-11-27T10:50:46.645Z,9.42
2022-11-27T10:51:46.634Z,9.43
2022-11-27T10:52:51.029Z,9.47
2022-11-27T10:53:47.604Z,9.47
2022-11-27T10:54:46.604Z,9.48
2022-11-27T10:55:46.573Z,9.48
2022-11-27T10:56:46.554Z,9.48
2022-11-27T10:57:46.555Z,9.48
2022-11-27T10:58:46.542Z,9.53
2022-11-27T10:59:46.765Z,9.53
2022-11-27T11:00:46.551Z,9.53
2022-11-27T11:01:46.590Z,9.54
2022-11-27T11:02:46.520Z,9.54
2022-11-27T11:03:46.572Z,9.57
2022-11-27T11:04:58.600Z,9.57
2022-11-27T11:06:12.257Z,9.57
2022-11-27T11:06:47.472Z,9.56
2022-11-27T11:07:46.548Z,9.54
2022-11-27T11:08:46.433Z,9.57
2022-11-27T11:09:46.462Z,9.56
2022-11-27T11:10:46.411Z,9.54
2022-11-27T11:11:46.375Z,9.54
2022-11-27T11:12:46.355Z,9.56
2022-11-27T11:13:46.360Z,9.53
2022-11-27T11:14:46.322Z,9.53
2022-11-27T11:15:51.393Z,9.56
2022-11-27T11:16:47.325Z,9.54
2022-11-27T11:17:46.299Z,9.57
2022-11-27T11:18:46.294Z,9.56
2022-11-27T11:19:46.269Z,9.56
2022-11-27T11:20:46.990Z,9.57
2022-11-27T11:21:46.309Z,9.58
2022-11-27T11:22:46.230Z,9.57
2022-11-27T11:23:46.219Z,9.56
2022-11-27T11:24:46.199Z,9.57
2022-11-27T11:25:46.191Z,9.56
2022-11-27T11:26:46.204Z,9.56
2022-11-27T11:27:46.167Z,9.56
2022-11-27T11:28:46.157Z,9.56
2022-11-27T11:29:46.136Z,9.56
2022-11-27T11:30:46.126Z,9.57
2022-11-27T11:31:46.364Z,9.57
2022-11-27T11:32:46.086Z,9.58
2022-11-27T11:33:46.099Z,9.57
2022-11-27T11:34:46.067Z,9.58
2022-11-27T11:35:46.060Z,9.58
2022-11-27T11:36:46.255Z,9.58
2022-11-27T11:37:46.037Z,9.60
2022-11-27T11:38:46.026Z,9.60
2022-11-27T11:39:46.006Z,9.61
2022-11-27T11:40:45.985Z,9.61
2022-11-27T11:41:46.014Z,9.64
2022-11-27T11:42:45.974Z,9.64
2022-11-27T11:43:45.977Z,9.64
2022-11-27T11:44:45.944Z,9.61
2022-11-27T11:45:45.988Z,9.64
2022-11-27T11:46:45.913Z,9.65
2022-11-27T11:47:46.124Z,9.65
2022-11-27T11:48:45.900Z,9.65
2022-11-27T11:49:45.926Z,9.66
2022-11-27T11:50:45.856Z,9.66
2022-11-27T11:51:46.105Z,9.69
2022-11-27T11:52:45.834Z,9.69
2022-11-27T11:53:45.877Z,9.69
2022-11-27T11:54:45.823Z,9.71
2022-11-27T11:55:45.803Z,9.71
2022-11-27T11:56:45.801Z,9.72
2022-11-27T11:57:45.811Z,9.74
2022-11-27T11:58:45.963Z,9.72
2022-11-27T11:59:45.753Z,9.74
2022-11-27T12:01:11.739Z,9.75
2022-11-27T12:01:46.758Z,9.76
2022-11-27T12:02:45.738Z,9.76
2022-11-27T12:03:45.740Z,9.74
2022-11-27T12:04:45.828Z,9.76
2022-11-27T12:05:45.694Z,9.78
2022-11-27T12:06:45.665Z,9.75
2022-11-27T12:07:51.831Z,9.75
2022-11-27T12:08:46.839Z,9.78
2022-11-27T12:09:45.630Z,9.76
2022-11-27T12:10:45.646Z,9.76
2022-11-27T12:11:45.608Z,9.76
2022-11-27T12:12:45.579Z,9.76
2022-11-27T12:13:45.615Z,9.75
2022-11-27T12:14:45.550Z,9.75
2022-11-27T12:15:45.539Z,9.75
2022-11-27T12:16:45.577Z,9.72
2022-11-27T12:17:45.519Z,9.72
2022-11-27T12:18:45.741Z,9.72
2022-11-27T12:19:45.488Z,9.69
2022-11-27T12:20:45.471Z,9.68
2022-11-27T12:21:45.466Z,9.68
2022-11-27T12:22:45.447Z,9.68
2022-11-27T12:23:45.489Z,9.68
2022-11-27T12:24:45.660Z,9.66
2022-11-27T12:25:45.417Z,9.68
2022-11-27T12:26:45.408Z,9.66
2022-11-27T12:27:45.394Z,9.65
2022-11-27T12:28:45.379Z,9.65
2022-11-27T12:29:45.364Z,9.61
2022-11-27T12:30:45.367Z,9.64
2022-11-27T12:31:45.454Z,9.64
2022-11-27T12:32:45.316Z,9.60
2022-11-27T12:33:45.315Z,9.58
2022-11-27T12:34:45.294Z,9.58
2022-11-27T12:35:45.316Z,9.56
2022-11-27T12:36:45.267Z,9.54
2022-11-27T12:37:45.261Z,9.53
2022-11-27T12:38:45.234Z,9.50
2022-11-27T12:39:45.225Z,9.48
2022-11-27T12:40:45.242Z,9.47
2022-11-27T12:41:45.203Z,9.46
2022-11-27T12:42:45.183Z,9.42
2022-11-27T12:43:45.179Z,9.42
2022-11-27T12:44:45.175Z,9.42
2022-11-27T12:45:45.220Z,9.39
2022-11-27T12:46:45.137Z,9.38
2022-11-27T12:47:45.133Z,9.38
2022-11-27T12:48:45.110Z,9.38
2022-11-27T12:49:45.135Z,9.36
2022-11-27T12:50:45.101Z,9.35
2022-11-27T12:51:45.075Z,9.38
2022-11-27T12:52:45.070Z,9.38
2022-11-27T12:53:45.086Z,9.39
2022-11-27T12:54:45.037Z,9.38
2022-11-27T12:55:45.050Z,9.38
2022-11-27T12:56:45.010Z,9.38
2022-11-27T12:57:45.007Z,9.39
2022-11-27T12:58:44.981Z,9.40
2022-11-27T12:59:44.982Z,9.40
2022-11-27T13:00:45.077Z,9.40
2022-11-27T13:01:45.035Z,9.43
2022-11-27T13:02:44.998Z,9.42
2022-11-27T13:03:44.938Z,9.43
2022-11-27T13:04:44.900Z,9.46
2022-11-27T13:05:44.899Z,9.47
2022-11-27T13:06:45.098Z,9.48
2022-11-27T13:07:44.958Z,9.48
2022-11-27T13:08:49.629Z,9.51
2022-11-27T13:09:46.085Z,9.53
2022-11-27T13:10:44.828Z,9.54
2022-11-27T13:11:44.827Z,9.53
2022-11-27T13:12:44.837Z,9.54
2022-11-27T13:13:44.790Z,9.56
2022-11-27T13:14:48.562Z,9.56
2022-11-27T13:15:45.759Z,9.56
2022-11-27T13:16:44.811Z,9.56
2022-11-27T13:17:44.948Z,9.54
2022-11-27T13:18:44.730Z,9.56